createdAt,value
2023-08-29T00:00:23.546Z,99702.19
2023-08-29T00:02:50.914Z,99692.31
2023-08-29T00:05:17.371Z,99699.59
2023-08-29T00:07:43.982Z,99693.25
2023-08-29T00:10:11.277Z,99671.78
2023-08-29T00:12:37.768Z,99675.69
2023-08-29T00:15:04.235Z,99685.75
2023-08-29T00:17:30.747Z,99682.59
2023-08-29T00:19:57.305Z,99669.50
2023-08-29T00:22:23.732Z,99683.09
2023-08-29T00:24:50.153Z,99670.75
2023-08-29T00:30:00.609Z,99667.53
2023-08-29T00:32:29.852Z,99657.91
2023-08-29T00:34:59.216Z,99650.75
2023-08-29T00:37:27.560Z,99652.66
2023-08-29T00:39:57.530Z,99637.34
2023-08-29T00:45:11.701Z,99634.75
2023-08-29T00:47:39.039Z,99623.69
2023-08-29T00:50:05.590Z,99628.06
2023-08-29T00:52:32.081Z,99634.88
2023-08-29T00:55:00.380Z,99636.53
2023-08-29T01:00:11.430Z,99625.75
2023-08-29T01:02:37.962Z,99617.53
2023-08-29T01:05:04.425Z,99616.41
2023-08-29T01:07:30.911Z,99609.38
2023-08-29T01:09:57.334Z,99607.03
2023-08-29T01:15:09.487Z,99589.97
2023-08-29T01:17:35.978Z,99593.34
2023-08-29T01:20:02.538Z,99583.56
2023-08-29T01:22:30.883Z,99584.88
2023-08-29T01:25:00.856Z,99590.22
2023-08-29T01:30:11.899Z,99570.50
2023-08-29T01:32:38.413Z,99574.81
2023-08-29T01:35:06.736Z,99568.31
2023-08-29T01:37:33.201Z,99567.38
2023-08-29T01:39:59.711Z,99565.09
2023-08-29T01:45:12.878Z,99548.59
2023-08-29T01:47:40.251Z,99544.34
2023-08-29T01:50:07.583Z,99536.34
2023-08-29T01:52:33.991Z,99534.38
2023-08-29T01:55:00.378Z,99531.34
2023-08-29T02:00:10.483Z,99520.84
2023-08-29T02:02:36.892Z,99520.16
2023-08-29T02:05:03.345Z,99507.50
2023-08-29T02:07:29.755Z,99490.19
2023-08-29T02:09:56.178Z,99481.13
2023-08-29T02:15:06.294Z,99470.19
2023-08-29T02:17:33.620Z,99455.13
2023-08-29T02:20:00.096Z,99454.91
2023-08-29T02:22:26.563Z,99454.47
2023-08-29T02:24:52.998Z,99447.31
2023-08-29T02:30:04.365Z,99428.00
2023-08-29T02:32:30.794Z,99425.84
2023-08-29T02:34:57.238Z,99409.94
2023-08-29T02:37:23.662Z,99415.94
2023-08-29T02:39:50.103Z,99410.13
2023-08-29T02:45:00.406Z,99403.91
2023-08-29T02:47:26.836Z,99394.72
2023-08-29T02:49:53.293Z,99388.25
2023-08-29T02:52:19.721Z,99381.19
2023-08-29T02:54:46.111Z,99376.03
2023-08-29T02:59:57.343Z,99364.25
2023-08-29T03:02:23.741Z,99368.00
2023-08-29T03:04:50.182Z,99354.28
2023-08-29T03:07:16.588Z,99359.44
2023-08-29T03:09:43.852Z,99352.38
2023-08-29T03:12:11.280Z,99351.59
2023-08-29T03:14:37.673Z,99338.59
2023-08-29T03:17:04.056Z,99332.47
2023-08-29T03:19:30.450Z,99311.56
2023-08-29T03:21:56.848Z,99306.31
2023-08-29T03:24:23.242Z,99307.66
2023-08-29T03:26:49.663Z,99308.84
2023-08-29T03:29:16.063Z,99325.31
2023-08-29T03:31:42.424Z,99336.00
2023-08-29T03:34:08.859Z,99349.63
2023-08-29T03:36:35.265Z,99406.00
2023-08-29T03:39:01.672Z,99488.13
2023-08-29T03:41:28.079Z,99545.03
2023-08-29T03:43:54.486Z,99551.53
2023-08-29T03:46:21.786Z,99524.06
2023-08-29T03:48:48.238Z,99493.25
2023-08-29T03:51:15.523Z,99516.09
2023-08-29T03:53:41.917Z,99510.34
2023-08-29T03:56:08.308Z,99485.75
2023-08-29T03:58:34.705Z,99482.41
2023-08-29T04:01:01.268Z,99475.13
2023-08-29T04:03:28.029Z,99499.53
2023-08-29T04:05:54.649Z,99480.72
2023-08-29T04:08:21.940Z,99489.75
2023-08-29T04:10:48.351Z,99503.53
2023-08-29T04:13:15.640Z,99519.16
2023-08-29T04:18:25.837Z,99525.72
2023-08-29T04:20:52.252Z,99516.25
2023-08-29T04:23:19.571Z,99507.88
2023-08-29T04:25:45.982Z,99508.69
2023-08-29T04:28:12.386Z,99513.69
2023-08-29T04:33:32.558Z,99507.22
2023-08-29T04:35:58.979Z,99505.19
2023-08-29T04:38:26.240Z,99504.22
2023-08-29T04:40:53.499Z,99500.81
2023-08-29T04:43:19.944Z,99517.03
2023-08-29T04:48:30.450Z,99497.47
2023-08-29T04:50:56.876Z,99505.97
2023-08-29T04:53:24.144Z,99517.78
2023-08-29T04:55:50.572Z,99506.19
2023-08-29T04:58:17.853Z,99505.50
2023-08-29T05:03:28.261Z,99514.59
2023-08-29T05:05:54.941Z,99511.22
2023-08-29T05:08:24.456Z,99507.31
2023-08-29T05:10:50.873Z,99516.78
2023-08-29T05:13:18.183Z,99511.22
2023-08-29T05:18:28.443Z,99500.03
2023-08-29T05:20:55.966Z,99504.41
2023-08-29T05:23:22.800Z,99485.84
2023-08-29T05:25:51.994Z,99515.13
2023-08-29T05:28:19.292Z,99493.91
2023-08-29T05:33:40.612Z,99476.25
2023-08-29T05:36:07.285Z,99480.25
2023-08-29T05:38:33.972Z,99494.47
2023-08-29T05:41:00.661Z,99479.63
2023-08-29T05:43:27.327Z,99471.34
2023-08-29T05:48:38.402Z,99470.22
2023-08-29T05:51:05.662Z,99474.56
2023-08-29T05:53:32.075Z,99480.25
2023-08-29T05:55:58.516Z,99471.78
2023-08-29T05:58:24.968Z,99473.25
2023-08-29T06:03:35.510Z,99452.22
2023-08-29T06:06:03.103Z,99455.59
2023-08-29T06:08:29.552Z,99456.47
2023-08-29T06:10:56.113Z,99452.13
2023-08-29T06:13:22.510Z,99445.19
2023-08-29T06:18:33.744Z,99444.66
2023-08-29T06:21:00.167Z,99431.91
2023-08-29T06:23:26.627Z,99422.28
2023-08-29T06:25:53.111Z,99426.69
2023-08-29T06:28:20.385Z,99418.94
2023-08-29T06:33:40.590Z,99400.94
2023-08-29T06:36:07.077Z,99400.63
2023-08-29T06:38:37.158Z,99399.59
2023-08-29T06:41:03.588Z,99406.66
2023-08-29T06:43:29.986Z,99414.03
2023-08-29T06:48:40.565Z,99402.97
2023-08-29T06:51:07.835Z,99396.69
2023-08-29T06:53:34.284Z,99386.72
2023-08-29T06:56:01.580Z,99397.00
2023-08-29T06:58:28.055Z,99400.44
2023-08-29T07:03:48.060Z,99412.44
2023-08-29T07:06:15.451Z,99414.03
2023-08-29T07:08:41.909Z,99411.59
2023-08-29T07:11:08.331Z,99417.28
2023-08-29T07:13:34.766Z,99417.72
2023-08-29T07:18:45.220Z,99402.47
2023-08-29T07:21:12.503Z,99388.25
2023-08-29T07:23:38.976Z,99386.75
2023-08-29T07:26:05.424Z,99376.41
2023-08-29T07:28:31.834Z,99384.94
2023-08-29T07:30:58.290Z,99385.25
2023-08-29T07:33:24.763Z,99391.09
2023-08-29T07:35:51.216Z,99394.78
2023-08-29T07:38:18.576Z,99389.63
2023-08-29T07:40:45.914Z,99394.19
2023-08-29T07:43:12.304Z,99394.09
2023-08-29T07:45:38.722Z,99407.69
2023-08-29T07:48:05.454Z,99430.94
2023-08-29T07:50:32.246Z,99447.75
2023-08-29T07:52:58.713Z,99436.94
2023-08-29T07:55:26.008Z,99435.06
2023-08-29T07:57:53.363Z,99428.91
2023-08-29T08:00:22.058Z,99429.84
2023-08-29T08:02:48.497Z,99434.03
2023-08-29T08:05:15.809Z,99436.00
2023-08-29T08:07:42.283Z,99452.53
2023-08-29T08:10:08.701Z,99448.31
2023-08-29T08:12:36.029Z,99444.75
2023-08-29T08:15:02.536Z,99435.72
2023-08-29T08:17:29.008Z,99431.88
2023-08-29T08:19:55.479Z,99424.25
2023-08-29T08:22:21.927Z,99416.88
2023-08-29T08:24:48.317Z,99417.66
2023-08-29T08:27:15.590Z,99420.56
2023-08-29T08:29:42.881Z,99419.34
2023-08-29T08:32:10.305Z,99429.44
2023-08-29T08:34:36.748Z,99431.69
2023-08-29T08:37:04.032Z,99436.81
2023-08-29T08:39:31.313Z,99441.03
2023-08-29T08:41:57.724Z,99438.34
2023-08-29T08:44:24.162Z,99440.91
2023-08-29T08:46:51.443Z,99452.53
2023-08-29T08:52:03.694Z,99451.69
2023-08-29T08:54:32.118Z,99460.94
2023-08-29T08:56:58.567Z,99457.09
2023-08-29T08:59:25.026Z,99475.16
2023-08-29T09:01:51.467Z,99470.19
2023-08-29T09:07:05.269Z,99477.69
2023-08-29T09:09:31.686Z,99478.31
2023-08-29T09:11:58.200Z,99472.66
2023-08-29T09:14:24.712Z,99479.38
2023-08-29T09:16:51.259Z,99481.50
2023-08-29T09:22:01.913Z,99466.44
2023-08-29T09:24:28.436Z,99466.81
2023-08-29T09:26:54.973Z,99467.00
2023-08-29T09:29:24.997Z,99464.84
2023-08-29T09:31:53.340Z,99460.94
2023-08-29T09:37:03.644Z,99456.75
2023-08-29T09:39:30.111Z,99448.13
2023-08-29T09:41:57.430Z,99453.03
2023-08-29T09:44:26.663Z,99443.94
2023-08-29T09:46:53.941Z,99444.25
2023-08-29T09:52:06.114Z,99451.16
2023-08-29T09:54:32.750Z,99450.81
2023-08-29T09:57:00.149Z,99452.84
2023-08-29T09:59:27.566Z,99452.63
2023-08-29T10:01:54.057Z,99445.47
2023-08-29T10:07:04.553Z,99447.25
2023-08-29T10:09:31.008Z,99457.91
2023-08-29T10:11:58.374Z,99458.97
2023-08-29T10:14:25.735Z,99458.94
2023-08-29T10:16:53.132Z,99473.25
2023-08-29T10:22:03.861Z,99474.88
2023-08-29T10:24:31.301Z,99466.34
2023-08-29T10:26:57.897Z,99457.03
2023-08-29T10:29:24.382Z,99456.13
2023-08-29T10:31:50.894Z,99460.47
2023-08-29T10:37:02.115Z,99453.97
2023-08-29T10:39:28.650Z,99450.41
2023-08-29T10:41:56.079Z,99456.63
2023-08-29T10:44:23.559Z,99453.84
2023-08-29T10:46:50.090Z,99445.75
2023-08-29T10:52:01.774Z,99445.47
2023-08-29T10:54:29.218Z,99441.19
2023-08-29T10:56:56.658Z,99452.69
2023-08-29T10:59:24.082Z,99456.94
2023-08-29T11:01:51.460Z,99457.38
2023-08-29T11:07:02.828Z,99450.56
2023-08-29T11:09:29.320Z,99450.06
2023-08-29T11:11:55.884Z,99456.34
2023-08-29T11:14:22.447Z,99468.31
2023-08-29T11:16:49.056Z,99468.31
2023-08-29T11:19:16.357Z,99460.69
2023-08-29T11:21:45.042Z,99465.84
2023-08-29T11:24:17.304Z,99452.97
2023-08-29T11:26:44.086Z,99454.97
2023-08-29T11:29:10.637Z,99444.56
2023-08-29T11:31:37.255Z,99445.66
2023-08-29T11:34:04.627Z,99452.81
2023-08-29T11:36:31.154Z,99439.13
2023-08-29T11:38:57.621Z,99428.56
2023-08-29T11:41:35.747Z,99427.31
2023-08-29T11:45:19.499Z,99427.31
2023-08-29T11:46:55.052Z,99432.63
2023-08-29T11:49:21.566Z,99425.59
2023-08-29T11:51:48.109Z,99431.56
2023-08-29T11:54:14.660Z,99429.53
2023-08-29T11:56:43.036Z,99434.66
2023-08-29T11:59:11.331Z,99446.94
2023-08-29T12:01:38.754Z,99454.59
2023-08-29T12:04:05.358Z,99452.09
2023-08-29T12:06:46.665Z,99458.81
2023-08-29T12:09:13.994Z,99456.78
2023-08-29T12:11:40.436Z,99453.22
2023-08-29T12:14:06.929Z,99445.56
2023-08-29T12:16:33.484Z,99435.16
2023-08-29T12:19:00.933Z,99434.38
2023-08-29T12:21:28.382Z,99429.09
2023-08-29T12:23:54.917Z,99433.91
2023-08-29T12:26:22.223Z,99436.72
2023-08-29T12:28:49.526Z,99438.25
2023-08-29T12:31:17.904Z,99436.25
2023-08-29T12:33:46.328Z,99446.22
2023-08-29T12:36:12.898Z,99447.00
2023-08-29T12:38:40.340Z,99456.50
2023-08-29T12:41:07.773Z,99447.78
2023-08-29T12:43:34.289Z,99450.13
2023-08-29T12:46:01.667Z,99451.19
2023-08-29T12:48:28.323Z,99452.47
2023-08-29T12:50:54.869Z,99456.03
2023-08-29T12:56:06.834Z,99459.91
2023-08-29T12:58:34.025Z,99459.91
2023-08-29T13:01:01.454Z,99456.66
2023-08-29T13:03:28.050Z,99463.38
2023-08-29T13:05:55.781Z,99457.78
2023-08-29T13:08:23.247Z,99464.47
2023-08-29T13:10:51.425Z,99474.44
2023-08-29T13:13:18.905Z,99471.19
2023-08-29T13:15:51.621Z,99474.75
2023-08-29T13:18:19.393Z,99465.22
2023-08-29T13:20:46.838Z,99470.84
2023-08-29T13:26:08.321Z,99465.75
2023-08-29T13:28:35.758Z,99464.16
2023-08-29T13:31:02.322Z,99468.06
2023-08-29T13:33:29.753Z,99467.28
2023-08-29T13:35:56.287Z,99472.25
2023-08-29T13:41:07.868Z,99467.44
2023-08-29T13:43:34.385Z,99465.44
2023-08-29T13:46:00.953Z,99466.97
2023-08-29T13:48:27.540Z,99470.09
2023-08-29T13:50:55.007Z,99468.06
2023-08-29T13:56:16.643Z,99462.94
2023-08-29T13:58:45.343Z,99464.03
2023-08-29T14:01:12.352Z,99459.22
2023-08-29T14:03:39.622Z,99461.56
2023-08-29T14:06:06.345Z,99449.84
2023-08-29T14:11:18.809Z,99444.09
2023-08-29T14:13:46.379Z,99449.38
2023-08-29T14:16:13.905Z,99439.91
2023-08-29T14:18:40.505Z,99436.22
2023-08-29T14:21:07.052Z,99436.78
2023-08-29T14:26:28.772Z,99440.59
2023-08-29T14:28:56.248Z,99453.69
2023-08-29T14:31:23.813Z,99464.41
2023-08-29T14:33:51.261Z,99464.88
2023-08-29T14:36:17.797Z,99466.06
2023-08-29T14:41:29.591Z,99469.81
2023-08-29T14:43:58.146Z,99471.50
2023-08-29T14:46:25.660Z,99474.69
2023-08-29T14:48:52.212Z,99470.16
2023-08-29T14:51:19.686Z,99475.59
2023-08-29T14:56:42.484Z,99475.41
2023-08-29T14:59:09.016Z,99480.59
2023-08-29T15:01:35.591Z,99487.34
2023-08-29T15:04:02.240Z,99490.09
2023-08-29T15:06:29.680Z,99498.47
2023-08-29T15:11:40.347Z,99506.72
2023-08-29T15:14:07.796Z,99500.66
2023-08-29T15:16:34.319Z,99501.28
2023-08-29T15:19:00.860Z,99499.78
2023-08-29T15:21:28.344Z,99501.28
2023-08-29T15:26:39.078Z,99508.72
2023-08-29T15:29:05.603Z,99502.03
2023-08-29T15:31:32.163Z,99506.66
2023-08-29T15:33:58.740Z,99505.28
2023-08-29T15:36:26.158Z,99498.94
2023-08-29T15:41:36.638Z,99495.50
2023-08-29T15:44:03.194Z,99504.06
2023-08-29T15:46:30.686Z,99501.06
2023-08-29T15:48:58.128Z,99502.47
2023-08-29T15:51:24.646Z,99498.00
2023-08-29T15:56:35.214Z,99483.63
2023-08-29T15:59:01.733Z,99483.19
2023-08-29T16:01:28.257Z,99480.06
2023-08-29T16:03:54.910Z,99481.44
2023-08-29T16:06:21.515Z,99484.06
2023-08-29T16:08:48.034Z,99483.91
2023-08-29T16:11:15.465Z,99475.03
2023-08-29T16:13:42.016Z,99474.53
2023-08-29T16:16:09.468Z,99469.91
2023-08-29T16:18:35.998Z,99472.69
2023-08-29T16:21:03.436Z,99469.88
2023-08-29T16:23:29.941Z,99458.97
2023-08-29T16:25:57.417Z,99463.97
2023-08-29T16:28:24.895Z,99473.47
2023-08-29T16:30:51.434Z,99457.13
2023-08-29T16:33:18.890Z,99463.38
2023-08-29T16:35:46.389Z,99462.25
2023-08-29T16:38:13.925Z,99463.16
2023-08-29T16:40:40.477Z,99453.34
2023-08-29T16:43:07.016Z,99467.06
2023-08-29T16:45:33.633Z,99479.66
2023-08-29T16:48:00.219Z,99483.50
2023-08-29T16:50:26.801Z,99477.59
2023-08-29T16:52:53.354Z,99470.44
2023-08-29T16:55:19.879Z,99470.84
2023-08-29T16:57:47.496Z,99472.28
2023-08-29T17:00:14.010Z,99470.44
2023-08-29T17:02:41.541Z,99462.53
2023-08-29T17:05:09.034Z,99454.41
2023-08-29T17:07:36.772Z,99448.22
2023-08-29T17:10:04.197Z,99428.59
2023-08-29T17:12:30.708Z,99422.41
2023-08-29T17:14:57.223Z,99433.47
2023-08-29T17:17:23.864Z,99425.81
2023-08-29T17:19:51.388Z,99436.25
2023-08-29T17:22:17.940Z,99441.06
2023-08-29T17:24:45.411Z,99447.47
2023-08-29T17:30:06.197Z,99472.16
2023-08-29T17:32:32.823Z,99491.13
2023-08-29T17:35:00.282Z,99507.81
2023-08-29T17:37:27.744Z,99520.44
2023-08-29T17:39:54.289Z,99519.47
2023-08-29T17:45:07.134Z,99527.75
2023-08-29T17:47:34.665Z,99536.91
2023-08-29T17:50:01.292Z,99532.03
2023-08-29T17:52:29.026Z,99547.50
2023-08-29T17:54:56.523Z,99536.41
2023-08-29T18:00:17.110Z,99526.00
2023-08-29T18:02:43.824Z,99541.13
2023-08-29T18:05:10.485Z,99537.19
2023-08-29T18:07:37.073Z,99538.16
2023-08-29T18:10:04.549Z,99534.25
2023-08-29T18:15:16.056Z,99527.25
2023-08-29T18:17:44.300Z,99515.31
2023-08-29T18:20:11.024Z,99504.69
2023-08-29T18:22:37.625Z,99498.72
2023-08-29T18:25:04.215Z,99489.22
2023-08-29T18:30:15.618Z,99501.59
2023-08-29T18:32:43.157Z,99497.53
2023-08-29T18:35:09.724Z,99493.78
2023-08-29T18:37:37.196Z,99491.88
2023-08-29T18:40:04.636Z,99487.94
2023-08-29T18:45:15.919Z,99483.31
2023-08-29T18:47:43.537Z,99481.00
2023-08-29T18:50:10.979Z,99456.34
2023-08-29T18:52:38.430Z,99430.34
2023-08-29T18:55:04.952Z,99444.28
2023-08-29T19:00:17.539Z,99449.28
2023-08-29T19:02:44.164Z,99443.75
2023-08-29T19:05:10.783Z,99438.34
2023-08-29T19:07:37.350Z,99434.63
2023-08-29T19:10:03.901Z,99447.25
2023-08-29T19:15:14.442Z,99450.88
2023-08-29T19:17:41.929Z,99454.97
2023-08-29T19:20:08.453Z,99454.97
2023-08-29T19:22:35.890Z,99465.28
2023-08-29T19:25:03.350Z,99473.41
2023-08-29T19:30:16.116Z,99449.03
2023-08-29T19:32:43.012Z,99447.03
2023-08-29T19:35:10.780Z,99444.25
2023-08-29T19:37:38.469Z,99455.56
2023-08-29T19:40:06.224Z,99454.19
2023-08-29T19:45:18.876Z,99443.34
2023-08-29T19:47:45.705Z,99443.81
2023-08-29T19:50:12.520Z,99441.66
2023-08-29T19:52:40.267Z,99443.94
2023-08-29T19:55:07.991Z,99437.00
2023-08-29T20:00:19.710Z,99439.22
2023-08-29T20:02:47.574Z,99445.72
2023-08-29T20:05:15.304Z,99452.31
2023-08-29T20:07:42.957Z,99458.16
2023-08-29T20:10:09.746Z,99459.06
2023-08-29T20:15:21.583Z,99463.75
2023-08-29T20:17:49.372Z,99463.13
2023-08-29T20:20:15.914Z,99469.59
2023-08-29T20:22:44.009Z,99467.44
2023-08-29T20:25:11.623Z,99464.75
2023-08-29T20:27:38.172Z,99468.41
2023-08-29T20:30:04.744Z,99459.34
2023-08-29T20:32:31.328Z,99451.41
2023-08-29T20:34:57.871Z,99442.22
2023-08-29T20:37:25.348Z,99431.56
2023-08-29T20:39:52.782Z,99422.50
2023-08-29T20:42:19.292Z,99423.78
2023-08-29T20:44:46.738Z,99424.63
2023-08-29T20:47:13.292Z,99414.69
2023-08-29T20:49:39.835Z,99411.16
2023-08-29T20:52:06.352Z,99428.88
2023-08-29T20:54:33.881Z,99441.34
2023-08-29T20:57:00.417Z,99442.66
2023-08-29T20:59:26.969Z,99437.88
2023-08-29T21:01:53.499Z,99437.28
2023-08-29T21:04:20.964Z,99448.13
2023-08-29T21:06:47.508Z,99445.44
2023-08-29T21:09:14.018Z,99451.72
2023-08-29T21:11:40.535Z,99441.78
2023-08-29T21:14:07.088Z,99432.91
2023-08-29T21:16:34.526Z,99439.81
2023-08-29T21:19:01.105Z,99451.56
2023-08-29T21:21:28.591Z,99457.31
2023-08-29T21:23:55.135Z,99475.91
2023-08-29T21:26:22.578Z,99491.25
2023-08-29T21:28:50.020Z,99484.69
2023-08-29T21:31:17.671Z,99485.47
2023-08-29T21:33:44.253Z,99483.84
2023-08-29T21:36:10.781Z,99492.56
2023-08-29T21:38:37.320Z,99482.63
2023-08-29T21:41:04.793Z,99476.50
2023-08-29T21:43:31.321Z,99466.88
2023-08-29T21:48:41.849Z,99457.75
2023-08-29T21:51:08.534Z,99454.72
2023-08-29T21:53:35.071Z,99465.34
2023-08-29T21:56:02.502Z,99464.56
2023-08-29T21:58:29.947Z,99479.34
2023-08-29T22:03:51.232Z,99503.81
2023-08-29T22:06:18.709Z,99516.97
2023-08-29T22:08:46.152Z,99515.38
2023-08-29T22:11:13.596Z,99531.25
2023-08-29T22:13:40.149Z,99542.25
2023-08-29T22:18:52.380Z,99554.56
2023-08-29T22:21:19.907Z,99552.22
2023-08-29T22:23:47.399Z,99558.56
2023-08-29T22:26:15.653Z,99543.94
2023-08-29T22:28:43.095Z,99533.25
2023-08-29T22:34:05.590Z,99514.81
2023-08-29T22:36:33.072Z,99515.47
2023-08-29T22:39:00.514Z,99495.69
2023-08-29T22:41:34.641Z,99472.09
2023-08-29T22:44:02.459Z,99451.63
2023-08-29T22:49:15.096Z,99434.19
2023-08-29T22:51:41.650Z,99427.16
2023-08-29T22:54:09.166Z,99416.84
2023-08-29T22:56:38.131Z,99415.94
2023-08-29T22:59:05.638Z,99408.88
2023-08-29T23:04:17.088Z,99432.25
2023-08-29T23:06:44.512Z,99430.78
2023-08-29T23:09:12.010Z,99436.25
2023-08-29T23:11:39.611Z,99445.19
2023-08-29T23:14:07.156Z,99456.28
2023-08-29T23:19:19.443Z,99461.63
2023-08-29T23:21:46.060Z,99468.69
2023-08-29T23:24:13.534Z,99457.16
2023-08-29T23:26:40.064Z,99453.00
2023-08-29T23:29:07.502Z,99443.00
2023-08-29T23:34:29.711Z,99425.78
2023-08-29T23:36:57.155Z,99422.13
2023-08-29T23:39:23.694Z,99413.41
2023-08-29T23:41:50.234Z,99412.56
2023-08-29T23:44:17.708Z,99403.78
2023-08-29T23:49:29.084Z,99384.00
2023-08-29T23:51:56.522Z,99391.28
2023-08-29T23:54:23.979Z,99388.88
2023-08-29T23:56:51.423Z,99377.97
2023-08-29T23:59:18.983Z,99372.56
